Time;durP1;ratioP1;P1;durP2;ratioP2;P2;SDS_P1;SDS_P2;PMS_P1;PMS_P2;Temp;Humidity;BMP_temperature;BMP_pressure;BME280_temperature;BME280_humidity;BME280_pressure;Samples;Min_cycle;Max_cycle;Signal;HPM_P1;HPM_P2
2022/11/26 00:02:28;;;;;;;42.40;15.98;;;;;;;4.41;97.80;102484.59;4995143;28;20042;-70
2022/11/26 00:04:57;;;;;;;37.30;15.02;;;;;;;4.46;97.99;102484.69;4990171;28;20483;-69
2022/11/26 00:07:29;;;;;;;34.38;15.20;;;;;;;4.50;98.16;102487.41;4996319;28;20805;-71
2022/11/26 00:09:58;;;;;;;33.97;15.65;;;;;;;4.50;98.01;102491.75;4991746;28;20035;-71
2022/11/26 00:12:31;;;;;;;39.10;15.80;;;;;;;4.51;97.97;102496.13;4992052;28;20039;-70
2022/11/26 00:15:16;;;;;;;41.63;15.35;;;;;;;4.51;98.00;102494.38;4989618;28;20493;-69
2022/11/26 00:17:44;;;;;;;39.00;16.52;;;;;;;4.52;98.18;102503.13;4990997;28;20049;-69
2022/11/26 00:20:12;;;;;;;39.00;15.23;;;;;;;4.53;98.13;102504.00;4989705;28;20046;-69
2022/11/26 00:23:03;;;;;;;39.75;16.67;;;;;;;4.54;98.18;102506.63;4989680;28;20042;-69
2022/11/26 00:25:41;;;;;;;35.25;15.30;;;;;;;4.58;98.35;102515.44;4990781;28;20110;-70
2022/11/26 00:28:27;;;;;;;39.22;15.35;;;;;;;4.62;98.44;102515.53;4987269;28;20050;-70
2022/11/26 00:30:58;;;;;;;41.65;15.65;;;;;;;4.61;98.36;102518.09;4984421;28;20122;-70
2022/11/26 00:33:27;;;;;;;35.63;16.13;;;;;;;4.57;98.24;102519.75;4993325;28;20039;-70
2022/11/26 00:36:05;;;;;;;40.97;16.23;;;;;;;4.58;98.22;102521.53;4989826;28;20053;-70
2022/11/26 00:38:32;;;;;;;32.13;15.68;;;;;;;4.55;98.35;102523.19;4986992;28;20047;-70
2022/11/26 00:40:59;;;;;;;37.28;16.60;;;;;;;4.53;98.29;102528.38;4989421;28;20462;-70
2022/11/26 00:43:27;;;;;;;36.13;15.63;;;;;;;4.50;98.31;102523.97;4988435;28;20042;-70
2022/11/26 00:45:54;;;;;;;44.80;15.75;;;;;;;4.51;98.47;102519.63;4989483;28;20046;-70
2022/11/26 00:48:21;;;;;;;37.40;14.88;;;;;;;4.47;98.18;102516.09;4991684;28;20130;-70
2022/11/26 00:50:50;;;;;;;38.30;15.13;;;;;;;4.47;98.30;102517.78;4990347;28;20438;-70
2022/11/26 00:53:24;;;;;;;35.15;14.65;;;;;;;4.43;98.20;102521.19;4989109;28;20066;-70
2022/11/26 00:55:52;;;;;;;38.88;13.52;;;;;;;4.38;98.23;102515.84;4989553;28;20046;-71
2022/11/26 00:58:29;;;;;;;30.83;13.02;;;;;;;4.38;98.26;102530.66;4988937;28;20045;-71
2022/11/26 01:00:58;;;;;;;34.67;14.95;;;;;;;4.32;98.28;102526.16;4990364;28;20121;-71
2022/11/26 01:03:26;;;;;;;32.80;13.43;;;;;;;4.28;98.30;102529.53;4991562;28;20047;-71
2022/11/26 01:05:57;;;;;;;32.97;13.75;;;;;;;4.24;98.34;102528.59;4989590;28;20135;-71
2022/11/26 01:08:34;;;;;;;40.60;14.70;;;;;;;4.25;98.36;102534.72;4989227;28;20054;-71
2022/11/26 01:11:04;;;;;;;43.47;15.35;;;;;;;4.21;98.34;102533.78;4990666;28;20042;-71
2022/11/26 01:13:32;;;;;;;31.88;15.55;;;;;;;4.17;98.29;102537.16;4989327;28;20047;-71
2022/11/26 01:16:06;;;;;;;40.00;16.85;;;;;;;4.12;98.26;102533.56;4989996;28;20046;-71
2022/11/26 01:18:34;;;;;;;37.63;14.75;;;;;;;4.08;98.17;102539.53;4990680;28;20035;-71
2022/11/26 01:21:01;;;;;;;41.17;16.45;;;;;;;4.01;98.11;102535.91;4987283;28;20109;-71
2022/11/26 01:23:31;;;;;;;50.53;17.55;;;;;;;3.98;98.18;102531.50;4990487;28;20042;-72
2022/11/26 01:25:59;;;;;;;51.00;17.40;;;;;;;3.95;98.30;102541.84;4991759;28;20043;-71
2022/11/26 01:28:32;;;;;;;37.40;15.57;;;;;;;3.90;98.17;102538.25;4993997;28;20082;-71
2022/11/26 01:30:59;;;;;;;38.22;15.90;;;;;;;3.87;98.29;102541.66;4991884;28;20047;-71
2022/11/26 01:33:26;;;;;;;40.25;16.08;;;;;;;3.87;98.31;102538.16;4994129;28;20489;-70
2022/11/26 01:35:53;;;;;;;37.20;15.02;;;;;;;3.85;98.30;102542.47;4992488;28;20035;-70
2022/11/26 01:38:20;;;;;;;38.45;15.63;;;;;;;3.82;98.32;102544.97;4992414;28;20047;-70
2022/11/26 01:41:18;;;;;;;39.22;15.13;;;;;;;3.79;98.27;102539.72;4990227;28;20043;-70
2022/11/26 01:43:50;;;;;;;38.17;14.68;;;;;;;3.75;98.22;102538.75;4990063;28;20042;-70
2022/11/26 01:46:25;;;;;;;32.90;13.65;;;;;;;3.72;98.20;102538.66;4982306;28;20525;-70
2022/11/26 01:48:54;;;;;;;36.13;15.50;;;;;;;3.69;98.38;102536.88;4996374;28;20110;-70
2022/11/26 01:51:27;;;;;;;39.38;14.35;;;;;;;3.69;98.17;102538.59;4982882;28;20050;-70
2022/11/26 01:53:59;;;;;;;31.75;14.68;;;;;;;3.69;98.36;102535.97;4992959;28;20061;-70
2022/11/26 01:56:41;;;;;;;28.45;14.73;;;;;;;3.67;98.26;102532.44;4992582;28;20543;-71
2022/11/26 01:59:33;;;;;;;37.42;14.65;;;;;;;3.64;98.31;102537.59;4994161;28;20045;-70
2022/11/26 02:02:01;;;;;;;37.05;14.82;;;;;;;3.60;98.33;102534.03;4981485;28;20054;-70
2022/11/26 02:05:17;;;;;;;39.67;15.65;;;;;;;3.61;98.55;102534.91;4996286;28;20046;-71
2022/11/26 02:07:45;;;;;;;32.97;14.73;;;;;;;3.58;98.38;102540.94;4966719;28;20061;-71
2022/11/26 02:10:13;;;;;;;36.00;14.27;;;;;;;3.56;98.41;102533.03;4992879;28;20053;-70
2022/11/26 02:12:41;;;;;;;36.30;15.80;;;;;;;3.57;98.51;102542.63;4993150;28;20050;-71
2022/11/26 02:15:11;;;;;;;38.58;15.63;;;;;;;3.55;98.49;102546.97;4993967;28;20086;-71
2022/11/26 02:17:48;;;;;;;32.38;15.07;;;;;;;3.55;98.60;102546.97;4992989;28;20039;-70
2022/11/26 02:20:56;;;;;;;37.00;15.25;;;;;;;3.54;98.53;102549.50;4991630;28;20054;-69
2022/11/26 02:23:58;;;;;;;41.00;15.48;;;;;;;3.51;98.56;102550.31;4985736;28;20039;-70
2022/11/26 02:27:06;;;;;;;37.42;16.30;;;;;;;3.51;98.69;102549.44;4992520;28;20051;-70
2022/11/26 02:30:11;;;;;;;42.08;16.17;;;;;;;3.49;98.65;102548.50;4997567;28;20043;-70
2022/11/26 02:33:10;;;;;;;47.80;15.13;;;;;;;3.45;98.54;102552.78;4990423;28;20985;-70
2022/11/26 02:36:15;;;;;;;31.15;14.95;;;;;;;3.44;98.54;102569.25;4989659;28;20509;-70
2022/11/26 02:38:43;;;;;;;39.13;16.27;;;;;;;3.37;98.44;102557.78;4991226;28;20051;-70
2022/11/26 02:41:10;;;;;;;43.15;16.00;;;;;;;3.35;98.49;102567.25;4991961;28;20042;-70
2022/11/26 02:43:38;;;;;;;40.25;15.65;;;;;;;3.33;98.47;102571.56;4989693;28;20047;-71
2022/11/26 02:46:13;;;;;;;38.80;16.58;;;;;;;3.31;98.58;102575.84;5000117;28;20050;-71
2022/11/26 02:48:48;;;;;;;29.67;15.45;;;;;;;3.30;98.53;102570.59;4992676;28;20061;-71
2022/11/26 02:51:24;;;;;;;37.60;15.93;;;;;;;3.26;98.65;102575.72;4992146;28;20058;-71
2022/11/26 02:53:58;;;;;;;36.72;16.13;;;;;;;3.29;98.91;102582.75;4993040;28;20065;-71
2022/11/26 02:56:28;;;;;;;35.85;16.80;;;;;;;3.29;98.79;102590.56;4994651;28;20046;-71
2022/11/26 02:58:56;;;;;;;38.40;16.40;;;;;;;3.28;98.71;102588.81;4991804;28;21066;-71
2022/11/26 03:01:59;;;;;;;44.80;18.20;;;;;;;3.30;98.84;102591.44;4991211;28;20050;-71
2022/11/26 03:04:34;;;;;;;42.30;16.48;;;;;;;3.25;98.97;102578.28;4989001;28;20110;-71
2022/11/26 03:07:06;;;;;;;47.30;17.73;;;;;;;3.26;98.92;102587.88;4998687;28;21205;-71
2022/11/26 03:09:57;;;;;;;44.67;18.70;;;;;;;3.28;98.99;102588.81;4991856;28;20055;-71
2022/11/26 03:12:25;;;;;;;48.13;17.85;;;;;;;3.25;99.04;102589.63;4991155;28;20067;-70
2022/11/26 03:14:52;;;;;;;42.13;17.67;;;;;;;3.26;99.01;102587.88;4992021;28;20043;-71
2022/11/26 03:17:20;;;;;;;46.55;17.73;;;;;;;3.25;99.08;102592.22;4989987;28;20039;-71
2022/11/26 03:19:47;;;;;;;49.63;18.27;;;;;;;3.29;99.16;102600.09;4993931;28;20039;-71
2022/11/26 03:22:15;;;;;;;51.55;18.73;;;;;;;3.30;99.22;102605.38;4993041;28;20054;-72
2022/11/26 03:24:42;;;;;;;57.28;19.77;;;;;;;3.30;99.41;102607.09;4997378;28;20051;-71
2022/11/26 03:27:09;;;;;;;51.28;19.33;;;;;;;3.32;99.47;102606.28;4991966;28;20043;-71
2022/11/26 03:29:36;;;;;;;45.92;19.52;;;;;;;3.33;99.34;102609.78;4991781;28;20483;-71
2022/11/26 03:32:04;;;;;;;45.40;19.27;;;;;;;3.33;99.37;102613.25;4989366;28;20046;-71
2022/11/26 03:34:31;;;;;;;69.28;19.13;;;;;;;3.34;99.50;102607.22;4993720;28;20875;-71
2022/11/26 03:36:58;;;;;;;53.45;19.40;;;;;;;3.35;99.53;102610.72;4991555;28;20504;-71
2022/11/26 03:39:25;;;;;;;49.85;18.55;;;;;;;3.35;99.45;102619.41;4992409;28;20145;-70
2022/11/26 03:41:52;;;;;;;49.38;19.05;;;;;;;3.35;99.55;102619.41;4990678;28;20497;-71
2022/11/26 03:44:20;;;;;;;53.90;19.40;;;;;;;3.34;99.35;102614.16;4991691;28;20045;-70
2022/11/26 03:46:47;;;;;;;49.63;19.30;;;;;;;3.34;99.31;102619.38;4991024;28;20047;-70
2022/11/26 03:49:14;;;;;;;48.13;19.02;;;;;;;3.32;99.39;102632.34;4985136;28;20043;-69
2022/11/26 03:51:41;;;;;;;37.85;17.92;;;;;;;3.31;99.35;102630.59;5009985;28;20189;-69
2022/11/26 03:54:08;;;;;;;49.33;18.63;;;;;;;3.30;99.36;102633.16;4996755;28;20101;-69
2022/11/26 03:56:35;;;;;;;53.60;19.40;;;;;;;3.26;99.39;102622.63;5003663;28;20039;-69
2022/11/26 03:59:02;;;;;;;51.10;19.02;;;;;;;3.25;99.47;102620.00;4990058;28;20039;-70
2022/11/26 04:01:29;;;;;;;45.20;17.90;;;;;;;3.25;99.43;102630.41;4990729;28;20042;-69
2022/11/26 04:03:57;;;;;;;47.00;18.75;;;;;;;3.23;99.43;102627.78;4985454;28;20505;-69
2022/11/26 04:06:26;;;;;;;49.42;18.80;;;;;;;3.23;99.59;102630.38;5010348;28;20080;-70
2022/11/26 04:08:53;;;;;;;48.05;17.73;;;;;;;3.23;99.59;102648.63;4991091;28;20047;-70
2022/11/26 04:11:21;;;;;;;39.35;17.55;;;;;;;3.22;99.53;102639.03;4992174;28;20053;-70
2022/11/26 04:13:48;;;;;;;47.28;18.77;;;;;;;3.24;99.69;102644.28;4991391;28;20035;-69
2022/11/26 04:16:16;;;;;;;48.45;18.85;;;;;;;3.23;99.74;102647.72;4992263;28;20105;-69
2022/11/26 04:18:43;;;;;;;54.55;18.80;;;;;;;3.21;99.55;102639.88;4990478;28;20047;-70
2022/11/26 04:21:10;;;;;;;56.53;19.63;;;;;;;3.20;99.62;102645.06;4991623;28;20054;-69
2022/11/26 04:23:37;;;;;;;46.30;18.65;;;;;;;3.18;99.54;102638.91;4990316;28;20094;-69
2022/11/26 04:26:04;;;;;;;52.67;18.42;;;;;;;3.16;99.53;102649.25;4993068;28;20046;-70
2022/11/26 04:28:32;;;;;;;47.97;18.33;;;;;;;3.15;99.82;102647.53;4990779;28;20102;-69
2022/11/26 04:30:59;;;;;;;54.55;18.75;;;;;;;3.13;99.63;102650.91;4979298;28;20473;-69
2022/11/26 04:33:26;;;;;;;46.20;18.15;;;;;;;3.10;99.42;102651.72;4991202;28;20118;-70
2022/11/26 04:35:54;;;;;;;34.85;16.23;;;;;;;3.07;99.42;102660.31;5005664;28;20646;-70
2022/11/26 04:38:21;;;;;;;47.80;19.85;;;;;;;3.02;99.49;102648.00;4995719;28;20039;-69
2022/11/26 04:40:52;;;;;;;39.83;17.42;;;;;;;3.01;99.38;102661.84;4989173;28;20071;-68
2022/11/26 04:43:20;;;;;;;47.35;18.15;;;;;;;2.98;99.35;102664.34;4998256;28;20053;-69
2022/11/26 04:45:47;;;;;;;50.00;18.90;;;;;;;2.94;99.41;102666.91;4992812;28;20043;-69
2022/11/26 04:48:15;;;;;;;40.33;16.75;;;;;;;2.91;99.65;102664.19;4990583;28;20043;-69
2022/11/26 04:50:42;;;;;;;39.95;17.17;;;;;;;2.90;99.35;102678.03;4988984;28;20038;-69
2022/11/26 04:53:09;;;;;;;40.53;17.40;;;;;;;2.89;99.55;102672.78;4990415;28;20062;-70
2022/11/26 04:55:36;;;;;;;55.13;20.55;;;;;;;2.88;99.46;102674.50;4989805;28;20031;-70
2022/11/26 04:58:03;;;;;;;43.05;17.40;;;;;;;2.90;99.77;102677.19;4991449;28;20047;-70
2022/11/26 05:00:30;;;;;;;49.15;17.40;;;;;;;2.88;99.76;102674.50;5000350;28;20093;-70
2022/11/26 05:02:57;;;;;;;38.75;17.98;;;;;;;2.89;99.67;102675.41;4990919;28;20047;-70
2022/11/26 05:05:24;;;;;;;44.67;19.25;;;;;;;2.90;99.69;102687.59;4996997;28;20074;-70
2022/11/26 05:07:51;;;;;;;49.63;19.92;;;;;;;2.91;99.68;102681.53;4990399;28;20047;-71
2022/11/26 05:10:18;;;;;;;52.50;20.65;;;;;;;2.90;99.86;102679.78;4990831;28;20101;-71
2022/11/26 05:12:45;;;;;;;61.60;22.85;;;;;;;2.91;99.73;102673.72;4983721;28;20047;-70
2022/11/26 05:15:13;;;;;;;52.95;20.50;;;;;;;2.92;99.72;102680.69;4976417;28;20081;-71
2022/11/26 05:17:40;;;;;;;50.80;20.58;;;;;;;2.91;99.69;102682.41;4987720;28;20039;-70
2022/11/26 05:20:08;;;;;;;58.50;22.85;;;;;;;2.89;99.62;102691.03;4990495;28;20097;-70
2022/11/26 05:22:35;;;;;;;54.58;22.80;;;;;;;2.87;99.67;102690.97;4987944;28;20488;-70
2022/11/26 05:25:02;;;;;;;55.13;22.70;;;;;;;2.86;99.66;102691.78;4991279;28;20265;-70
2022/11/26 05:27:29;;;;;;;54.10;22.85;;;;;;;2.86;99.78;102689.19;4990655;28;20047;-71
2022/11/26 05:29:57;;;;;;;62.10;23.27;;;;;;;2.87;99.79;102692.69;4991389;28;20093;-71
2022/11/26 05:32:24;;;;;;;61.08;24.30;;;;;;;2.86;99.82;102691.78;4988670;28;20039;-71
2022/11/26 05:34:52;;;;;;;52.88;22.67;;;;;;;2.87;99.89;102690.09;4990668;28;20105;-71
2022/11/26 05:37:25;;;;;;;68.40;24.95;;;;;;;2.86;99.88;102698.75;4988999;28;20077;-71
2022/11/26 05:39:53;;;;;;;62.90;24.48;;;;;;;2.86;99.85;102693.53;4990717;28;20039;-71
2022/11/26 05:42:20;;;;;;;64.82;24.40;;;;;;;2.86;100.00;102689.19;4989032;28;20114;-71
2022/11/26 05:44:47;;;;;;;54.67;23.40;;;;;;;2.85;99.87;102696.97;4988605;28;20043;-70
2022/11/26 05:47:14;;;;;;;58.17;22.30;;;;;;;2.84;99.88;102695.19;4990685;28;20533;-70
2022/11/26 05:49:42;;;;;;;65.45;23.48;;;;;;;2.82;99.85;102694.25;4989866;28;20070;-70
2022/11/26 05:52:09;;;;;;;77.82;24.90;;;;;;;2.80;99.80;102705.50;4985002;28;20043;-69
2022/11/26 05:54:36;;;;;;;60.38;23.30;;;;;;;2.78;99.90;102706.31;4987484;28;20082;-70
2022/11/26 05:57:03;;;;;;;70.82;23.20;;;;;;;2.77;99.91;102709.75;4986541;28;20378;-70
2022/11/26 05:59:30;;;;;;;61.47;22.95;;;;;;;2.78;99.97;102704.59;4989141;28;20493;-70
2022/11/26 06:01:57;;;;;;;56.78;23.38;;;;;;;2.78;100.00;102704.59;4992230;28;20094;-69
2022/11/26 06:04:25;;;;;;;57.03;23.17;;;;;;;2.77;100.00;102709.75;4984507;28;20129;-69
2022/11/26 06:06:52;;;;;;;60.90;23.73;;;;;;;2.77;99.99;102713.25;4989659;28;20118;-69
2022/11/26 06:09:20;;;;;;;54.53;22.60;;;;;;;2.80;100.00;102717.66;4989188;28;20050;-69
2022/11/26 06:11:50;;;;;;;54.22;22.48;;;;;;;2.78;100.00;102712.41;5004311;28;20054;-70
2022/11/26 06:14:17;;;;;;;56.50;22.08;;;;;;;2.78;100.00;102717.63;4992996;28;20501;-69
2022/11/26 06:16:45;;;;;;;52.47;21.40;;;;;;;2.73;100.00;102719.19;4992691;28;20113;-70
2022/11/26 06:19:12;;;;;;;52.65;21.80;;;;;;;2.73;100.00;102718.31;4983116;28;20043;-70
2022/11/26 06:21:39;;;;;;;67.35;22.63;;;;;;;2.70;99.94;102724.28;4994748;28;20069;-70
2022/11/26 06:24:06;;;;;;;56.92;21.25;;;;;;;2.67;100.00;102729.41;4984705;28;20042;-70
2022/11/26 06:26:33;;;;;;;44.88;19.13;;;;;;;2.62;99.94;102729.28;4987966;28;20047;-70
2022/11/26 06:29:00;;;;;;;54.47;20.33;;;;;;;2.54;99.85;102730.75;4989569;28;20054;-70
2022/11/26 06:31:28;;;;;;;54.05;20.65;;;;;;;2.48;99.81;102736.63;4992238;28;20421;-70
2022/11/26 06:33:55;;;;;;;46.30;19.38;;;;;;;2.45;100.00;102736.50;4990737;28;20544;-69
2022/11/26 06:36:23;;;;;;;49.60;19.50;;;;;;;2.43;99.85;102739.91;4988195;28;20050;-68
2022/11/26 06:38:50;;;;;;;53.92;20.42;;;;;;;2.42;100.00;102740.75;4989764;28;20102;-68
2022/11/26 06:41:17;;;;;;;52.67;20.75;;;;;;;2.41;100.00;102747.63;4989897;28;20206;-68
2022/11/26 06:43:44;;;;;;;48.50;20.30;;;;;;;2.38;100.00;102752.75;4987353;28;20082;-71
2022/11/26 06:46:12;;;;;;;53.58;20.13;;;;;;;2.36;100.00;102764.84;4989177;28;20043;-70
2022/11/26 06:48:39;;;;;;;46.30;19.55;;;;;;;2.36;100.00;102761.34;4987956;28;20062;-71
2022/11/26 06:51:14;;;;;;;56.17;20.65;;;;;;;2.35;100.00;102752.66;4989157;28;20050;-71
2022/11/26 06:53:41;;;;;;;57.60;20.85;;;;;;;2.36;100.00;102761.34;4988330;28;20059;-69
2022/11/26 06:56:14;;;;;;;50.70;19.40;;;;;;;2.33;100.00;102763.03;4988943;28;20126;-69
2022/11/26 06:58:48;;;;;;;59.55;19.52;;;;;;;2.34;99.96;102763.91;4982169;28;20032;-69
2022/11/26 07:01:20;;;;;;;52.05;20.70;;;;;;;2.34;99.92;102779.50;4987859;28;20070;-68
2022/11/26 07:03:48;;;;;;;61.72;21.17;;;;;;;2.33;100.00;102773.44;4987322;28;20495;-69
2022/11/26 07:06:25;;;;;;;54.30;20.30;;;;;;;2.37;100.00;102783.94;4991544;28;20047;-69
2022/11/26 07:08:55;;;;;;;42.60;17.92;;;;;;;2.38;100.00;102784.00;4990782;28;20125;-68
2022/11/26 07:11:24;;;;;;;67.40;21.65;;;;;;;2.40;100.00;102784.06;4991727;28;20091;-68
2022/11/26 07:13:53;;;;;;;112.55;40.88;;;;;;;2.40;100.00;102787.53;4978243;28;20054;-68
2022/11/26 07:16:20;;;;;;;84.88;33.83;;;;;;;2.39;100.00;102780.53;4987560;28;20046;-69
2022/11/26 07:18:52;;;;;;;81.05;27.95;;;;;;;2.41;100.00;102781.50;4990134;28;20746;-68
2022/11/26 07:21:27;;;;;;;65.43;27.98;;;;;;;2.41;100.00;102771.06;4991872;28;20564;-68
2022/11/26 07:23:55;;;;;;;71.53;32.78;;;;;;;2.42;100.00;102772.84;4987316;28;20044;-69
2022/11/26 07:26:23;;;;;;;70.53;32.22;;;;;;;2.45;100.00;102790.28;4987959;28;20055;-68
2022/11/26 07:28:50;;;;;;;58.30;27.73;;;;;;;2.47;100.00;102771.31;4982619;28;20055;-69
2022/11/26 07:31:21;;;;;;;67.95;30.40;;;;;;;2.60;100.00;102776.91;4982983;28;20035;-68
2022/11/26 07:33:50;;;;;;;62.22;28.55;;;;;;;2.71;100.00;102779.88;4986646;28;20097;-68
2022/11/26 07:36:26;;;;;;;55.22;24.85;;;;;;;2.78;100.00;102789.66;4990495;28;20106;-68
2022/11/26 07:39:01;;;;;;;62.00;25.30;;;;;;;2.84;100.00;102789.00;4989833;28;20657;-69
2022/11/26 07:41:30;;;;;;;61.05;24.75;;;;;;;2.86;100.00;102782.97;4991861;28;20043;-69
2022/11/26 07:44:18;;;;;;;66.40;25.25;;;;;;;2.92;100.00;102784.91;4991124;28;20051;-69
2022/11/26 07:47:12;;;;;;;60.30;26.63;;;;;;;2.97;100.00;102785.06;4989544;28;20045;-69
2022/11/26 07:49:40;;;;;;;72.22;28.92;;;;;;;2.99;100.00;102789.50;4986575;28;20043;-69
2022/11/26 07:52:08;;;;;;;72.25;27.90;;;;;;;3.04;100.00;102795.72;4992266;28;20058;-68
2022/11/26 07:54:37;;;;;;;56.80;23.75;;;;;;;3.09;100.00;102788.06;4992529;28;20051;-69
2022/11/26 07:57:09;;;;;;;49.53;21.70;;;;;;;3.11;100.00;102797.69;4992982;28;20042;-69
2022/11/26 07:59:37;;;;;;;49.42;19.45;;;;;;;3.16;100.00;102805.66;4988813;28;20039;-70
2022/11/26 08:02:04;;;;;;;42.35;18.33;;;;;;;3.21;100.00;102805.81;4990587;28;20524;-69
2022/11/26 08:04:34;;;;;;;46.75;17.17;;;;;;;3.25;100.00;102807.69;4988601;28;20042;-69
2022/11/26 08:07:01;;;;;;;53.05;18.98;;;;;;;3.30;100.00;102810.44;4988400;28;20047;-70
2022/11/26 08:09:28;;;;;;;47.10;17.02;;;;;;;3.34;100.00;102807.97;4986566;28;20042;-70
2022/11/26 08:11:55;;;;;;;47.05;17.65;;;;;;;3.39;100.00;102800.28;4996664;28;21955;-70
2022/11/26 08:14:23;;;;;;;66.63;26.27;;;;;;;3.44;100.00;102796.13;4990079;28;20055;-70
2022/11/26 08:16:50;;;;;;;76.28;28.38;;;;;;;3.49;100.00;102796.25;4990141;28;20806;-70
2022/11/26 08:19:18;;;;;;;83.65;31.90;;;;;;;3.53;100.00;102804.22;4991403;28;20145;-70
2022/11/26 08:21:45;;;;;;;73.93;28.30;;;;;;;3.58;100.00;102792.19;5007347;28;20096;-70
2022/11/26 08:24:19;;;;;;;61.30;25.25;;;;;;;3.62;100.00;102795.75;4988447;28;20049;-69
2022/11/26 08:26:46;;;;;;;60.33;25.50;;;;;;;3.68;100.00;102801.19;4980891;28;20094;-68
2022/11/26 08:29:14;;;;;;;79.28;29.40;;;;;;;3.71;100.00;102803.88;4972538;28;20066;-69
2022/11/26 08:31:44;;;;;;;74.65;29.50;;;;;;;3.77;100.00;102802.28;4986537;28;20046;-69
2022/11/26 08:34:16;;;;;;;78.38;29.10;;;;;;;3.82;100.00;102806.81;4987067;28;20093;-69
2022/11/26 08:36:44;;;;;;;76.35;28.67;;;;;;;3.88;100.00;102806.97;4982547;28;20040;-70
2022/11/26 08:39:17;;;;;;;71.28;27.95;;;;;;;3.95;100.00;102812.38;4972669;28;20126;-69
2022/11/26 08:41:46;;;;;;;67.00;25.13;;;;;;;4.01;100.00;102813.47;4986955;28;20550;-69
2022/11/26 08:44:19;;;;;;;58.80;22.17;;;;;;;4.08;100.00;102824.94;4988626;28;20149;-70
2022/11/26 08:46:47;;;;;;;64.90;24.42;;;;;;;4.20;100.00;102814.84;4982459;28;20043;-68
2022/11/26 08:49:18;;;;;;;63.25;23.17;;;;;;;4.33;100.00;102812.56;4990689;28;20907;-70
2022/11/26 08:51:45;;;;;;;69.43;22.40;;;;;;;4.46;100.00;102809.47;4987655;28;20796;-70
2022/11/26 08:54:12;;;;;;;86.97;29.13;;;;;;;4.59;100.00;102809.75;4987968;28;20790;-70
2022/11/26 08:56:39;;;;;;;53.47;20.17;;;;;;;4.71;100.00;102810.09;4985474;28;20046;-70
2022/11/26 08:59:06;;;;;;;42.55;17.50;;;;;;;4.82;100.00;102819.06;4980492;28;20125;-70
2022/11/26 09:01:35;;;;;;;51.03;18.55;;;;;;;4.92;100.00;102812.38;4996513;28;20042;-70
2022/11/26 09:04:03;;;;;;;54.90;19.10;;;;;;;5.04;100.00;102808.25;4994281;28;20499;-70
2022/11/26 09:06:35;;;;;;;41.15;15.38;;;;;;;5.13;100.00;102800.66;4988569;28;20042;-69
2022/11/26 09:09:14;;;;;;;40.42;13.50;;;;;;;5.24;100.00;102804.38;4979167;28;20581;-69
2022/11/26 09:11:43;;;;;;;37.15;12.38;;;;;;;5.38;100.00;102816.91;4980030;28;20047;-70
2022/11/26 09:14:12;;;;;;;36.50;11.35;;;;;;;5.46;100.00;102809.25;4988302;28;20034;-70
2022/11/26 09:16:41;;;;;;;38.58;13.07;;;;;;;5.51;100.00;102818.97;4982872;28;20039;-70
2022/11/26 09:19:11;;;;;;;30.77;12.55;;;;;;;5.57;100.00;102826.06;4979888;28;20047;-70
2022/11/26 09:21:39;;;;;;;31.55;12.15;;;;;;;5.61;100.00;102827.88;4990874;28;20842;-69
2022/11/26 09:24:06;;;;;;;33.03;11.35;;;;;;;5.65;100.00;102828.84;4989029;28;20043;-70
2022/11/26 09:26:34;;;;;;;27.77;11.60;;;;;;;5.70;100.00;102827.22;4983031;28;20059;-70
2022/11/26 09:29:02;;;;;;;29.85;9.52;;;;;;;5.74;100.00;102829.06;4972771;28;20050;-70
2022/11/26 09:31:30;;;;;;;30.52;9.93;;;;;;;5.76;100.00;102840.44;4986111;28;20043;-70
2022/11/26 09:33:59;;;;;;;26.85;9.88;;;;;;;5.80;100.00;102834.41;4989677;28;20480;-70
2022/11/26 09:36:27;;;;;;;28.90;10.50;;;;;;;5.81;100.00;102841.44;4989388;28;20539;-70
2022/11/26 09:38:56;;;;;;;31.95;12.40;;;;;;;5.85;100.00;102840.63;4989661;28;20046;-70
2022/11/26 09:41:52;;;;;;;23.98;11.07;;;;;;;5.90;100.00;102838.13;4989326;28;20047;-70
2022/11/26 09:44:25;;;;;;;33.58;13.52;;;;;;;5.95;100.00;102840.84;4979106;28;20087;-70
2022/11/26 09:47:24;;;;;;;28.88;12.98;;;;;;;6.04;100.00;102835.84;4984788;28;20095;-70
2022/11/26 09:50:37;;;;;;;38.03;15.23;;;;;;;6.12;100.00;102828.09;4988309;28;20047;-70
2022/11/26 09:53:20;;;;;;;30.67;13.70;;;;;;;6.20;100.00;102837.03;4983970;28;20065;-70
2022/11/26 09:55:53;;;;;;;30.08;12.65;;;;;;;6.29;100.00;102846.78;4975565;28;20102;-70
2022/11/26 09:58:35;;;;;;;28.97;10.80;;;;;;;6.32;100.00;102846.84;4993132;28;20495;-70
2022/11/26 10:01:06;;;;;;;31.00;11.40;;;;;;;6.36;100.00;102849.56;4993694;28;20047;-70
2022/11/26 10:03:36;;;;;;;26.65;10.07;;;;;;;6.43;100.00;102854.91;4994291;28;20053;-70
2022/11/26 10:06:34;;;;;;;27.95;10.38;;;;;;;6.48;100.00;102843.66;4989487;28;20047;-70
2022/11/26 10:09:37;;;;;;;31.55;13.32;;;;;;;6.56;100.00;102841.19;4974619;28;20497;-70
2022/11/26 10:12:30;;;;;;;24.52;12.07;;;;;;;6.65;99.92;102841.34;4985252;28;20062;-70
2022/11/26 10:15:22;;;;;;;26.85;10.68;;;;;;;6.74;99.98;102843.28;4984374;28;20050;-70
2022/11/26 10:18:34;;;;;;;25.65;9.93;;;;;;;6.83;99.73;102850.41;4994226;28;20050;-70
2022/11/26 10:21:14;;;;;;;29.50;8.90;;;;;;;6.91;99.82;102853.16;4993250;28;20043;-70
2022/11/26 10:24:13;;;;;;;27.55;9.70;;;;;;;7.01;99.65;102846.34;4991243;28;20043;-71
2022/11/26 10:26:44;;;;;;;24.38;10.02;;;;;;;7.04;99.55;102849.91;4987446;28;20039;-71
2022/11/26 10:29:21;;;;;;;56.70;38.38;;;;;;;7.08;99.62;102846.44;4990400;28;20507;-71
2022/11/26 10:31:53;;;;;;;26.92;13.57;;;;;;;7.13;99.30;102844.81;4990313;28;20114;-71
2022/11/26 10:34:36;;;;;;;43.97;25.30;;;;;;;7.20;99.48;102845.78;4987880;28;20050;-71
2022/11/26 10:37:06;;;;;;;43.58;25.95;;;;;;;7.26;99.24;102850.25;4990946;28;20042;-71
2022/11/26 10:39:33;;;;;;;36.85;22.23;;;;;;;7.30;99.36;102837.19;4981772;28;20051;-71
2022/11/26 10:42:17;;;;;;;39.83;21.30;;;;;;;7.37;99.35;102832.03;4989179;28;20034;-71
2022/11/26 10:44:47;;;;;;;24.20;10.80;;;;;;;7.42;99.08;102839.13;4979743;28;20046;-70
2022/11/26 10:47:25;;;;;;;21.65;9.98;;;;;;;7.50;98.96;102839.25;4982529;28;20188;-71
2022/11/26 10:50:19;;;;;;;27.02;11.35;;;;;;;7.56;98.73;102822.69;4992093;28;20950;-70
2022/11/26 10:53:06;;;;;;;27.02;9.27;;;;;;;7.65;98.84;102832.41;4980997;28;20051;-71
2022/11/26 10:55:40;;;;;;;114.93;46.63;;;;;;;7.72;98.54;102826.41;4983970;28;20046;-71
2022/11/26 10:58:20;;;;;;;278.88;107.05;;;;;;;7.77;98.51;102824.72;4987447;28;20047;-71
2022/11/26 11:00:49;;;;;;;246.80;89.13;;;;;;;7.85;98.48;102830.06;4977664;28;20039;-71
2022/11/26 11:03:22;;;;;;;214.48;69.85;;;;;;;7.92;98.46;102838.06;4990502;28;20137;-70
2022/11/26 11:06:19;;;;;;;112.85;39.95;;;;;;;7.98;98.05;102832.00;4991019;28;20587;-70
2022/11/26 11:08:52;;;;;;;118.30;45.45;;;;;;;8.01;97.77;102833.78;4991393;28;20039;-70
2022/11/26 11:11:26;;;;;;;40.20;15.60;;;;;;;8.05;97.93;102822.44;4987355;28;20063;-69
2022/11/26 11:13:54;;;;;;;;;;;;;;;8.06;97.91;102825.09;4989487;28;20043;-70
2022/11/26 11:16:28;;;;;;;46.75;27.65;;;;;;;8.11;98.18;102826.88;4986520;28;20438;-71
2022/11/26 11:19:03;;;;;;;22.45;10.88;;;;;;;8.13;97.80;102823.44;4984718;28;20572;-71
2022/11/26 11:21:37;;;;;;;24.88;10.75;;;;;;;8.17;97.61;102824.34;4992261;28;20039;-71
2022/11/26 11:24:16;;;;;;;18.75;8.85;;;;;;;8.21;97.11;102818.25;4986337;28;20653;-71
2022/11/26 11:26:48;;;;;;;25.00;13.13;;;;;;;8.23;97.15;102816.50;4986042;28;20102;-71
2022/11/26 11:29:31;;;;;;;24.17;11.52;;;;;;;8.30;96.96;102818.34;4989165;28;20034;-70
2022/11/26 11:32:03;;;;;;;29.10;12.43;;;;;;;8.38;96.89;102818.44;4990079;28;20484;-71
2022/11/26 11:34:41;;;;;;;28.52;11.35;;;;;;;8.51;96.95;102824.72;4976315;28;20097;-70
2022/11/26 11:37:17;;;;;;;29.23;11.05;;;;;;;8.62;96.91;102811.69;4994586;28;20074;-70
2022/11/26 11:40:12;;;;;;;24.40;11.85;;;;;;;8.73;96.83;102809.16;4991048;28;20046;-70